Latest Weather Observations for Laverton

IDV60901

Issued at 1:51 pm EST Saturday 1 August 2015 (issued every 10 minutes, with the page automatically refreshed every 10 minutes)

About weather observations | Map of Melbourne area stations | Latest observations for Melbourne area | Other Formats
Station Details ID: 087031 Name: LAVERTON RAAF Lat: -37.86 Lon: 144.76 Height: 20.1 m
Data from the previous 72 hours. | See also: Recent months at Laverton
Date/Time
EST
Tmp

°C
App
Tmp
°C
Dew
Point
°C
Rel
Hum
%
Delta-T

°C
Wind Press
QNH
hPa
Press
MSL
hPa
Rain
since
9 am
mm
Dir
 
Spd
km/h
Gust
km/h
Spd
kts
Gust
kts
01/01:30pm 11.2 7.5 4.4 63 3.1 SW 13 19 7 10 1014.3 1014.3 0.0
01/01:00pm 10.9 7.3 5.0 67 2.7 WSW 13 19 7 10 1014.3 1014.3 0.0
01/12:30pm 10.8 7.8 6.0 72 2.2 SSW 11 15 6 8 1014.4 1014.4 0.0
01/12:00pm 10.4 6.2 5.6 72 2.2 SW 17 22 9 12 1014.6 1014.6 0.0
01/11:30am 10.6 6.7 5.4 70 2.4 WSW 15 24 8 13 1014.9 1014.9 0.0
01/11:00am 10.8 7.0 6.0 72 2.2 WSW 15 22 8 12 1014.6 1014.6 0.0
01/10:30am 10.2 5.6 5.8 74 2.0 WSW 19 24 10 13 1014.7 1014.7 0.0
01/10:00am 10.0 5.3 6.0 76 1.8 WSW 20 32 11 17 1014.0 1014.0 0.0
01/09:30am 9.7 3.9 6.4 80 1.5 WSW 26 35 14 19 1013.5 1013.5 0.0
01/09:00am 10.0 4.3 6.5 79 1.6 WSW 26 39 14 21 1012.8 1012.8 0.4
01/08:30am 10.6 4.7 7.7 82 1.4 WSW 28 41 15 22 1012.0 1012.0 0.4
01/08:07am 11.2 7.3 8.6 84 1.3 W 19 43 10 23 1011.1 1011.2 0.2
01/08:00am 10.3 8.1 7.9 85 1.2 W 9 19 5 10 1010.8 1010.9 0.2
01/07:30am 10.2 5.8 7.3 82 1.4 NNW 20 28 11 15 1010.0 1010.1 0.2
01/07:00am 10.4 5.1 6.9 79 1.7 NNW 24 37 13 20 1008.9 1009.0 0.0
01/06:30am 11.1 4.9 6.3 72 2.3 NNW 28 43 15 23 1008.1 1008.2 0.0
01/06:00am 11.3 4.3 6.2 71 2.4 NNW 32 44 17 24 1008.0 1008.1 0.0
01/05:30am 11.3 5.0 5.8 69 2.6 NNW 28 46 15 25 1007.8 1007.9 0.0
01/05:27am 11.2 4.9 5.7 69 2.5 NNW 28 46 15 25 1007.8 1007.9 0.0
01/05:00am 11.2 5.3 5.7 69 2.6 N 26 43 14 23 1007.9 1008.0 0.0
01/04:30am 10.6 5.4 5.4 70 2.4 N 22 35 12 19 1007.7 1007.8 0.0
01/04:00am 10.3 4.2 4.9 69 2.4 N 26 46 14 25 1008.5 1008.6 0.0
01/03:53am 10.3 3.8 4.9 69 2.4 N 28 46 15 25 1008.5 1008.6 0.0
01/03:30am 9.8 2.3 4.4 69 2.4 N 33 50 18 27 1008.6 1008.7 0.0
01/03:00am 9.8 1.9 4.2 68 2.5 N 35 56 19 30 1009.0 1009.1 0.0
01/02:30am 10.1 1.3 3.8 65 2.8 N 39 59 21 32 1009.2 1009.3 0.0
01/02:09am 9.9 2.8 3.4 64 2.8 N 30 50 16 27 1009.8 1009.9 0.0
01/02:00am 9.9 3.1 3.2 63 2.9 N 28 44 15 24 1010.1 1010.2 0.0
01/01:30am 10.2 3.0 2.8 60 3.2 N 30 54 16 29 1010.5 1010.6 0.0
01/01:00am 10.3 2.5 2.7 59 3.3 N 33 57 18 31 1011.5 1011.6 0.0
01/12:30am 10.2 2.9 2.6 59 3.3 N 30 50 16 27 1012.2 1012.2 0.0
01/12:04am 10.0 3.1 2.4 59 3.2 N 28 46 15 25 1012.5 1012.5 0.0
01/12:00am 9.8 3.2 2.2 59 3.2 N 26 43 14 23 1012.7 1012.7 0.0
 
Date/Time
EST
Tmp

°C
App
Tmp
°C
Dew
Point
°C
Rel
Hum
%
Delta-T

°C
Wind Press
QNH
hPa
Press
MSL
hPa
Rain
since
9 am
mm
Dir
 
Spd
km/h
Gust
km/h
Spd
kts
Gust
kts
31/11:30pm 10.0 5.2 2.4 59 3.2 NNE 17 24 9 13 1013.5 1013.5 0.0
31/11:00pm 9.9 6.2 2.5 60 3.1 N 11 24 6 13 1014.0 1014.0 0.0
31/10:30pm 10.3 4.1 2.2 57 3.4 N 24 43 13 23 1014.1 1014.1 0.0
31/10:00pm 9.6 5.6 2.7 62 2.9 N 13 20 7 11 1015.0 1015.0 0.0
31/09:30pm 9.2 5.5 2.3 62 2.9 N 11 15 6 8 1015.3 1015.3 0.0
31/09:00pm 9.5 3.7 2.4 61 3.0 NNW 22 28 12 15 1015.5 1015.5 0.0
31/08:30pm 9.1 5.8 2.7 64 2.7 N 9 15 5 8 1015.7 1015.7 0.0
31/08:00pm 9.9 4.2 2.7 61 3.1 N 22 33 12 18 1015.4 1015.4 0.0
31/07:30pm 9.8 4.0 2.4 60 3.1 N 22 32 12 17 1015.2 1015.2 0.0
31/07:00pm 10.1 4.7 2.5 59 3.2 N 20 32 11 17 1015.8 1015.8 0.0
31/06:30pm 10.1 4.9 2.5 59 3.2 N 19 26 10 14 1016.0 1016.0 0.0
31/06:00pm 10.6 4.8 2.2 56 3.6 N 22 32 12 17 1015.9 1015.9 0.0
31/05:30pm 11.0 5.9 2.8 57 3.6 N 19 26 10 14 1015.6 1015.6 0.0
31/05:00pm 12.1 7.0 2.8 53 4.1 N 19 28 10 15 1015.4 1015.4 0.0
31/04:30pm 12.9 7.5 2.5 49 4.6 NNW 20 30 11 16 1015.4 1015.4 0.0
31/04:00pm 13.3 7.9 1.3 44 5.1 NNW 19 26 10 14 1015.8 1015.8 0.0
31/03:30pm 13.6 8.1 1.9 45 5.1 NNW 20 32 11 17 1016.2 1016.2 0.0
31/03:00pm 13.7 8.3 1.0 42 5.4 NNW 19 28 10 15 1016.6 1016.6 0.0
31/02:30pm 13.3 8.4 1.9 46 4.9 N 17 26 9 14 1016.9 1016.9 0.0
31/02:00pm 12.8 8.7 2.1 48 4.6 NNW 13 20 7 11 1017.5 1017.5 0.0
31/01:30pm 12.8 8.8 2.9 51 4.4 NW 13 19 7 10 1018.1 1018.1 0.0
31/01:00pm 12.0 7.6 2.5 52 4.1 WNW 15 22 8 12 1019.0 1019.0 0.0
31/12:30pm 12.2 8.6 3.2 54 4.0 NW 11 17 6 9 1019.7 1019.7 0.0
31/12:00pm 11.8 8.1 2.5 53 4.0 WNW 11 22 6 12 1020.3 1020.3 0.0
31/11:30am 11.3 6.5 2.6 55 3.8 WNW 17 22 9 12 1021.0 1021.0 0.0
31/11:00am 10.9 5.8 3.2 59 3.3 WNW 19 24 10 13 1021.5 1021.5 0.0
31/10:30am 10.5 6.5 5.1 69 2.5 NW 15 22 8 12 1021.7 1021.7 0.0
31/10:00am 9.3 5.4 5.3 76 1.8 NNW 15 19 8 10 1021.4 1021.4 0.0
31/09:30am 8.0 4.1 5.5 84 1.1 NW 15 20 8 11 1021.5 1021.5 0.0
31/09:00am 6.6 3.4 5.1 90 0.7 NW 11 13 6 7 1021.3 1021.3 1.2
31/08:30am 4.5 0.6 3.5 93 0.4 NW 13 17 7 9 1021.3 1021.3 1.2
31/08:00am 2.3 -2.3 1.6 95 0.3 NW 15 17 8 9 1021.1 1021.1 1.2
31/07:30am 1.7 -3.4 1.0 95 0.3 NW 17 19 9 10 1020.9 1020.9 1.2
31/07:00am 2.0 -2.6 1.3 95 0.3 NW 15 17 8 9 1020.4 1020.4 1.2
31/06:30am 1.3 -3.1 0.4 94 0.3 NW 13 15 7 8 1020.1 1020.1 1.2
31/06:00am 2.0 -2.7 1.1 94 0.3 NW 15 17 8 9 1019.9 1019.9 1.2
31/05:30am 1.9 -2.8 0.9 93 0.4 NW 15 17 8 9 1019.7 1019.7 1.2
31/05:00am 2.6 -2.4 1.6 93 0.4 NW 17 19 9 10 1019.6 1019.6 1.2
31/04:30am 2.4 -1.9 1.2 92 0.5 NW 13 15 7 8 1019.3 1019.3 1.2
31/04:00am 3.3 -0.8 2.0 91 0.5 WNW 13 17 7 9 1019.0 1019.0 1.2
31/03:30am 4.3 -0.1 2.8 90 0.6 WNW 15 19 8 10 1019.0 1019.0 1.2
31/03:00am 4.7 0.4 3.2 90 0.6 WNW 15 19 8 10 1019.0 1019.0 1.2
31/02:30am 5.4 1.2 3.7 89 0.7 WNW 15 19 8 10 1019.1 1019.1 1.2
31/02:00am 4.7 0.8 3.5 92 0.5 WNW 13 17 7 9 1019.1 1019.1 1.2
31/01:30am 5.3 1.5 4.0 91 0.5 WNW 13 19 7 10 1018.8 1018.8 1.2
31/01:00am 5.0 1.1 3.5 90 0.6 WNW 13 15 7 8 1018.8 1018.8 1.2
31/12:30am 5.0 1.1 3.3 89 0.7 WNW 13 15 7 8 1018.7 1018.7 1.2
31/12:00am 5.8 2.4 3.8 87 0.8 NW 11 13 6 7 1018.5 1018.5 1.2
 
Date/Time
EST
Tmp

°C
App
Tmp
°C
Dew
Point
°C
Rel
Hum
%
Delta-T

°C
Wind Press
QNH
hPa
Press
MSL
hPa
Rain
since
9 am
mm
Dir
 
Spd
km/h
Gust
km/h
Spd
kts
Gust
kts
30/11:30pm 6.7 3.4 4.5 86 1.0 NW 11 15 6 8 1018.4 1018.4 1.2
30/11:00pm 7.5 3.9 4.8 83 1.2 WNW 13 17 7 9 1018.3 1018.3 1.2
30/10:30pm 9.4 5.2 5.8 78 1.6 WNW 17 28 9 15 1018.0 1018.0 1.2
30/10:00pm 10.1 5.8 7.2 82 1.4 W 19 30 10 16 1018.0 1018.0 1.2
30/09:32pm 9.3 4.4 6.7 84 1.2 WNW 22 33 12 18 1017.6 1017.6 1.2
30/09:30pm 9.3 4.0 6.6 83 1.3 WNW 24 33 13 18 1017.6 1017.6 1.0
30/09:10pm 9.4 4.8 6.3 81 1.4 NW 20 28 11 15 1017.2 1017.2 0.6
30/09:00pm 9.7 5.0 6.1 78 1.7 NNW 20 26 11 14 1016.7 1016.7 0.0
30/08:30pm 10.3 4.3 5.5 72 2.2 NNW 26 41 14 22 1016.1 1016.1 0.0
30/08:00pm 10.3 3.0 5.3 71 2.3 NNW 33 50 18 27 1015.5 1015.5 0.0
30/07:32pm 10.9 3.5 4.8 66 2.8 NNW 33 52 18 28 1014.8 1014.8 0.0
30/07:30pm 10.9 3.0 4.6 65 2.8 NNW 35 52 19 28 1014.8 1014.8 0.0
30/07:00pm 11.0 3.5 4.5 64 2.9 NNW 33 52 18 28 1014.3 1014.3 0.0
30/06:30pm 11.1 2.4 3.9 61 3.2 NNW 39 63 21 34 1013.5 1013.5 0.0
30/06:09pm 11.2 2.4 3.7 60 3.3 NNW 39 63 21 34 1013.4 1013.4 0.0
30/06:00pm 11.2 2.8 3.7 60 3.3 NNW 37 54 20 29 1013.2 1013.2 0.0
30/05:30pm 11.4 3.3 3.4 58 3.5 NNW 35 54 19 29 1013.1 1013.1 0.0
30/05:00pm 11.9 2.6 2.9 54 3.9 NNW 41 65 22 35 1012.0 1012.0 0.0
30/04:30pm 12.0 3.8 2.7 53 4.1 NNW 35 56 19 30 1011.8 1011.8 0.0
30/04:00pm 12.1 4.5 2.6 52 4.1 N 32 54 17 29 1012.4 1012.4 0.0
30/03:30pm 12.2 3.1 2.1 50 4.4 N 39 65 21 35 1012.6 1012.6 0.0
30/03:00pm 12.6 4.9 2.2 49 4.5 N 32 57 17 31 1013.3 1013.3 0.0
30/02:30pm 12.3 5.2 1.3 47 4.7 N 28 50 15 27 1013.6 1013.6 0.0
30/02:00pm 11.8 6.5 3.1 55 3.8 N 20 35 11 19 1014.7 1014.7 0.0
30/01:30pm 11.6 4.5 3.6 58 3.5 N 30 46 16 25 1014.4 1014.4 0.0
30/01:00pm 11.4 5.4 3.4 58 3.5 N 24 37 13 20 1015.1 1015.1 0.0
30/12:30pm 11.4 3.3 3.2 57 3.6 N 35 56 19 30 1016.5 1016.5 0.0
30/12:01pm 11.6 4.8 3.1 56 3.7 N 28 46 15 25 1017.7 1017.7 0.0
30/12:00pm 11.6 5.2 3.1 56 3.7 N 26 46 14 25 1017.7 1017.7 0.0
30/11:31am 11.1 4.4 3.6 60 3.3 N 28 46 15 25 1018.3 1018.3 0.0
30/11:30am 11.0 4.3 3.5 60 3.3 N 28 41 15 22 1018.3 1018.3 0.0
30/11:00am 10.4 2.9 3.7 63 2.9 N 32 48 17 26 1018.5 1018.5 0.0
30/10:48am 10.9 3.4 3.5 60 3.3 N 32 54 17 29 1018.6 1018.6 0.0
30/10:30am 10.6 3.9 3.9 63 3.0 N 28 44 15 24 1019.1 1019.1 0.0
30/10:00am 10.6 3.1 3.4 61 3.1 N 32 50 17 27 1019.8 1019.8 0.0
30/09:48am 10.5 3.8 3.5 62 3.1 N 28 46 15 25 1020.0 1020.0 0.0
30/09:30am 10.5 4.5 3.5 62 3.1 N 24 33 13 18 1020.4 1020.4 0.0
30/09:00am 9.7 3.0 3.7 66 2.6 N 28 44 15 24 1020.2 1020.2 0.0
30/08:30am 9.3 1.8 3.5 67 2.5 N 32 48 17 26 1020.0 1020.0 0.0
30/08:00am 9.0 1.5 3.4 68 2.4 N 32 50 17 27 1020.1 1020.1 0.0
30/07:57am 9.0 1.5 3.4 68 2.4 N 32 50 17 27 1020.0 1020.0 0.0
30/07:30am 9.0 3.0 3.2 67 2.5 N 24 35 13 19 1020.3 1020.3 0.0
30/07:00am 8.1 3.4 3.2 71 2.1 NNE 17 22 9 12 1020.8 1020.8 0.0
30/06:30am 8.2 3.1 3.3 71 2.1 N 19 28 10 15 1021.1 1021.1 0.0
30/06:00am 8.0 2.9 3.3 72 2.0 N 19 28 10 15 1021.5 1021.5 0.0
30/05:30am 8.2 3.1 3.3 71 2.1 N 19 30 10 16 1021.3 1021.3 0.0
30/05:00am 7.8 3.1 2.9 71 2.1 N 17 24 9 13 1021.8 1021.8 0.0
30/04:30am 7.7 3.0 3.0 72 2.0 NNE 17 24 9 13 1022.0 1022.0 0.0
30/04:00am 7.7 3.0 3.0 72 2.0 NNE 17 26 9 14 1022.6 1022.6 0.0
30/03:30am 8.0 3.3 2.9 70 2.2 N 17 26 9 14 1023.0 1023.0 0.0
30/03:00am 8.1 3.0 3.0 70 2.1 N 19 26 10 14 1023.3 1023.3 0.0
30/02:30am 7.8 2.5 3.1 72 2.0 N 20 32 11 17 1023.7 1023.7 0.0
30/02:00am 7.7 2.6 3.0 72 2.0 N 19 24 10 13 1024.3 1024.3 0.0
30/01:30am 8.1 3.4 3.0 70 2.2 N 17 28 9 15 1024.9 1024.9 0.0
30/01:00am 8.2 3.5 3.1 70 2.2 N 17 24 9 13 1025.1 1025.1 0.0
30/12:30am 8.1 3.9 3.6 73 1.9 NNE 15 20 8 11 1025.6 1025.6 0.0
30/12:00am 8.2 4.1 4.2 76 1.7 N 15 20 8 11 1026.3 1026.3 0.0
 
Date/Time
EST
Tmp

°C
App
Tmp
°C
Dew
Point
°C
Rel
Hum
%
Delta-T

°C
Wind Press
QNH
hPa
Press
MSL
hPa
Rain
since
9 am
mm
Dir
 
Spd
km/h
Gust
km/h
Spd
kts
Gust
kts
29/11:30pm 8.1 4.3 4.1 76 1.7 NNE 13 17 7 9 1026.6 1026.6 0.0
29/11:00pm 8.3 5.0 4.3 76 1.7 N 11 15 6 8 1027.1 1027.1 0.0
29/10:30pm 8.8 5.2 4.8 76 1.8 N 13 19 7 10 1027.2 1027.2 0.0
29/10:00pm 9.2 5.2 5.0 75 1.9 NNE 15 20 8 11 1027.3 1027.3 0.0
29/09:30pm 9.5 5.2 5.1 74 2.0 NNE 17 24 9 13 1027.4 1027.4 0.0
29/09:00pm 9.8 6.2 5.2 73 2.1 N 13 19 7 10 1027.7 1027.7 0.0
29/08:30pm 10.1 6.2 5.3 72 2.2 N 15 20 8 11 1027.8 1027.8 0.0
29/08:00pm 10.0 5.7 5.2 72 2.2 NNE 17 22 9 12 1027.8 1027.8 0.0
29/07:30pm 10.2 6.2 5.0 70 2.4 NNE 15 19 8 10 1028.0 1028.0 0.0
29/07:00pm 10.5 7.1 4.2 65 2.8 N 11 19 6 10 1028.2 1028.2 0.0
29/06:30pm 11.0 6.7 3.1 58 3.4 N 15 22 8 12 1028.0 1028.0 0.0
29/06:00pm 10.8 6.7 4.5 65 2.8 N 15 22 8 12 1027.8 1027.8 0.0
29/05:30pm 10.9 6.4 4.4 64 2.9 NNE 17 24 9 13 1027.8 1027.8 0.0
29/05:00pm 11.3 6.2 4.3 62 3.1 N 20 30 11 16 1027.9 1027.9 0.0
29/04:30pm 11.8 7.2 3.6 57 3.6 N 17 24 9 13 1028.0 1028.0 0.0
29/04:00pm 12.1 7.4 3.3 55 3.9 N 17 28 9 15 1027.9 1027.9 0.0
29/03:30pm 12.8 7.8 3.5 53 4.2 N 19 24 10 13 1028.3 1028.3 0.0
29/03:00pm 12.7 7.7 3.6 54 4.0 N 19 24 10 13 1028.5 1028.5 0.0
29/02:30pm 13.1 8.0 2.9 50 4.5 NNW 19 26 10 14 1028.9 1028.9 0.0
29/02:00pm 13.2 8.1 3.0 50 4.5 N 19 28 10 15 1029.1 1029.1 0.0

Latest Capital City Observations: Canberra | Sydney | Melbourne | Brisbane | Adelaide | Perth | Hobart | Darwin

Other Formats:

Comma delimited format used in spreadsheet applications
http://www.bom.gov.au/fwo/IDV60901/IDV60901.94865.axf

JavaScript Object Notation format (JSON) in row-major order
http://www.bom.gov.au/fwo/IDV60901/IDV60901.94865.json